Latest Coastal Weather Observations for Whyalla

IDS60701

Issued at 7:11 pm CDT Saturday 10 December 2016 (issued every 10 minutes, with the page automatically refreshed every 10 minutes)

About coastal observations | Map of coastal stations | Coastal observations for SA | Marine services | Other Formats
Station Details ID: 018120 Name: WHYALLA AERO Lat: -33.05 Lon: 137.52 Height: 9.3 m
Data from the previous 72 hours. | See also: Recent months at Whyalla
Date/Time
CDT
Temp
°C
Wind Pressure Rain since
9am
mm
Weather Cloud Vis
km
Sea
Height
m
Swell
Dir  Spd
kts
Gust
kts
hPa Trend Height
m
Period
s
Dir
10/07:00pm 20.9 S 16 21 1019.3 - 0.0 - - 10 - - - -
10/06:30pm 21.8 S 16 21 1019.2 - 0.0 - - 10 - - - -
10/06:00pm 22.1 S 15 20 1019.1 - 0.0 - - 10 - - - -
10/05:30pm 22.9 S 15 19 1019.2 - 0.0 - - 10 - - - -
10/05:00pm 24.3 SSE 13 17 1019.5 - 0.0 - - 10 - - - -
10/04:30pm 24.3 SSE 14 18 1019.6 - 0.0 - - 10 - - - -
10/04:00pm 24.1 SSE 13 17 1019.8 - 0.0 - - 10 - - - -
10/03:30pm 24.9 SSE 13 18 1020.0 - 0.0 - - 10 - - - -
10/03:00pm 25.5 SE 12 16 1020.1 - 0.0 - - 10 - - - -
10/02:30pm 24.7 SE 11 14 1020.4 - 0.0 - - 10 - - - -
10/02:00pm 24.8 ESE 10 14 1020.9 - 0.0 - - 10 - - - -
10/01:30pm 24.3 SE 11 14 1021.3 - 0.0 - - 10 - - - -
10/01:00pm 24.8 SE 9 13 1021.8 - 0.0 - - 10 - - - -
10/12:30pm 23.4 SE 9 13 1022.0 - 0.0 - - 10 - - - -
10/12:00pm 23.1 SE 9 12 1022.3 - 0.0 - - 10 - - - -
10/11:30am 22.2 SSE 8 10 1022.4 - 0.0 - - 10 - - - -
10/11:00am 21.4 SE 6 9 1022.6 - 0.0 - - 10 - - - -
10/10:30am 20.5 SSE 8 11 1022.9 - 0.0 - - 10 - - - -
10/10:00am 20.2 S 7 10 1023.1 - 0.0 - - 10 - - - -
10/09:30am 19.7 S 6 8 1023.0 - 0.0 - - 10 - - - -
10/09:00am 18.3 SSW 7 9 1023.1 - 0.0 - - 10 - - - -
10/08:30am 17.5 S 6 9 1022.9 - 0.0 - - 10 - - - -
10/08:00am 16.6 S 5 8 1022.6 - 0.0 - - 10 - - - -
10/07:30am 15.9 SSE 6 8 1022.5 - 0.0 - - 10 - - - -
10/07:00am 13.5 S 3 3 1022.2 - 0.0 - - 10 - - - -
10/06:30am 11.3 S 4 5 1022.0 - 0.0 - - - - - - -
10/06:00am 11.3 SSE 3 4 1021.6 - 0.0 - - - - - - -
10/05:30am 13.0 CALM 0 3 1021.2 - 0.0 - - - - - - -
10/05:00am 14.0 SE 4 5 1020.9 - 0.0 - - - - - - -
10/04:30am 14.3 SE 6 7 1020.9 - 0.0 - - - - - - -
10/04:00am 14.6 SE 6 8 1021.0 - 0.0 - - - - - - -
10/03:30am 14.8 SE 6 8 1020.9 - 0.0 - - 10 - - - -
10/03:00am 15.2 SE 6 9 1021.0 - 0.0 - - - - - - -
10/02:30am 15.4 SSE 6 8 1021.2 - 0.0 - - - - - - -
10/02:00am 15.7 SSE 7 10 1021.4 - 0.0 - - - - - - -
10/01:30am 15.9 SSE 7 10 1022.0 - 0.0 - - - - - - -
10/01:00am 16.0 SSE 7 11 1022.1 - 0.0 - - - - - - -
10/12:30am 16.2 SSE 9 13 1022.4 - 0.0 - - - - - - -
10/12:00am 16.3 SSE 9 13 1022.5 - 0.0 - - - - - - -
 
Date/Time
CDT
Temp
°C
Wind Pressure Rain since
9am
mm
Weather Cloud Vis
km
Sea
Height
m
Swell
Dir  Spd
kts
Gust
kts
hPa Trend Height
m
Period
s
Dir
09/11:30pm 16.5 SSE 8 12 1022.7 - 0.0 - - 10 - - - -
09/11:00pm 16.9 SSE 11 15 1022.6 - 0.0 - - 10 - - - -
09/10:30pm 17.1 S 14 22 1022.4 - 0.0 - - - - - - -
09/10:00pm 17.1 S 13 20 1022.3 - 0.0 - - - - - - -
09/09:30pm 17.1 S 15 21 1021.9 - 0.0 - - - - - - -
09/09:00pm 17.2 SSW 16 22 1021.7 - 0.0 - - - - - - -
09/08:30pm 17.3 SSW 16 20 1021.6 - 0.0 - - 10 - - - -
09/08:00pm 17.7 SSW 16 23 1021.2 - 0.0 - - 10 - - - -
09/07:30pm 18.2 SSW 19 24 1021.0 - 0.0 - - 10 - - - -
09/07:00pm 18.7 S 18 23 1020.7 - 0.0 - - 10 - - - -
09/06:30pm 18.9 S 19 25 1020.4 - 0.0 - - 10 - - - -
09/06:00pm 19.9 S 18 23 1020.4 - 0.0 - - 10 - - - -
09/05:30pm 20.3 S 16 21 1020.4 - 0.0 - - 10 - - - -
09/05:00pm 20.4 SSW 14 19 1020.5 - 0.0 - - 10 - - - -
09/04:30pm 19.9 S 13 19 1020.7 - 0.0 - - 10 - - - -
09/04:00pm 19.4 SSW 15 19 1020.8 - 0.0 - - 10 - - - -
09/03:30pm 19.3 SSW 12 17 1021.1 - 0.0 - - 10 - - - -
09/03:00pm 19.6 SSW 13 18 1021.4 - 0.0 - - 10 - - - -
09/02:30pm 19.3 S 12 18 1021.6 - 0.0 - - 10 - - - -
09/02:00pm 18.4 S 12 18 1022.0 - 0.0 - - 10 - - - -
09/01:30pm 19.5 S 12 16 1022.2 - 0.0 - - 10 - - - -
09/01:00pm 18.2 SSE 11 19 1022.4 - 0.0 - Partly cloudy 10 - - - -
09/12:30pm 19.0 SSE 13 19 1022.5 - 0.0 - - 10 - - - -
09/12:00pm 18.8 SSE 12 17 1022.7 - 0.0 - Mostly clear 10 - - - -
09/11:30am 18.7 SSE 12 18 1022.7 - 0.0 - Partly cloudy 10 - - - -
09/11:00am 18.2 SE 12 16 1022.7 - 0.0 - Partly cloudy 10 - - - -
09/10:30am 16.8 SSE 12 18 1022.7 - 0.0 - Partly cloudy 10 - - - -
09/10:00am 17.3 SSE 11 19 1022.6 - 0.0 - Partly cloudy 10 - - - -
09/09:30am 16.9 S 15 20 1022.3 - 0.0 - Partly cloudy 10 - - - -
09/09:06am 17.0 SSE 15 25 1022.4 - 0.0 - Partly cloudy 10 - - - -
09/09:00am 17.2 SSE 14 25 1022.4 - 0.0 - Cloudy 10 - - - -
09/08:30am 16.2 S 12 18 1022.4 - 0.0 - Partly cloudy 10 - - - -
09/08:00am 15.6 SSE 11 15 1021.9 - 0.0 - Partly cloudy 10 - - - -
09/07:30am 15.3 SSE 10 15 1021.6 - 0.0 - Partly cloudy 10 - - - -
09/07:00am 15.1 SSE 10 14 1021.2 - 0.0 - Partly cloudy 10 - - - -
09/06:30am 15.1 S 10 15 1020.6 - 0.0 - Partly cloudy 10 - - - -
09/06:00am 15.0 SSE 12 16 1020.0 - 0.0 - Cloudy 10 - - - -
09/05:30am 15.2 SSE 11 17 1019.5 - 0.0 - Partly cloudy 10 - - - -
09/05:00am 15.1 SSE 11 19 1019.1 - 0.0 - Partly cloudy 10 - - - -
09/04:30am 15.2 SSE 11 17 1018.8 - 0.0 - Partly cloudy 10 - - - -
09/04:00am 15.3 SSE 11 14 1018.6 - 0.0 - Cloudy 10 - - - -
09/03:30am 15.6 SSE 11 15 1018.4 - 0.0 - Partly cloudy 10 - - - -
09/03:00am 15.1 SW 9 15 1018.1 - 0.0 - Mostly cloudy 10 - - - -
09/02:30am 14.9 SW 10 14 1018.2 - 0.0 - Partly cloudy 10 - - - -
09/02:00am 14.7 WSW 7 9 1018.2 - 0.0 - Partly cloudy 10 - - - -
09/01:30am 14.9 SW 9 12 1018.3 - 0.0 - Partly cloudy 10 - - - -
09/01:00am 15.6 SSW 11 15 1018.3 - 0.0 - Partly cloudy 10 - - - -
09/12:30am 15.6 SW 13 17 1018.0 - 0.0 - Partly cloudy 10 - - - -
09/12:00am 15.7 SW 13 17 1018.1 - 0.0 - Mostly cloudy 10 - - - -
 
Date/Time
CDT
Temp
°C
Wind Pressure Rain since
9am
mm
Weather Cloud Vis
km
Sea
Height
m
Swell
Dir  Spd
kts
Gust
kts
hPa Trend Height
m
Period
s
Dir
08/11:30pm 15.6 SW 13 18 1018.2 - 0.0 - - 10 - - - -
08/11:00pm 15.4 SW 12 17 1018.3 - 0.0 - Partly cloudy 10 - - - -
08/10:30pm 15.8 SW 15 22 1018.1 - 0.0 - - 10 - - - -
08/10:00pm 16.1 SSW 17 23 1017.7 - 0.0 - Partly cloudy 10 - - - -
08/09:30pm 16.6 SSW 19 24 1017.0 - 0.0 - Partly cloudy 10 - - - -
08/09:00pm 16.9 SSW 20 28 1016.5 - 0.0 - Partly cloudy 10 - - - -
08/08:51pm 16.9 SSW 18 28 1016.5 - 0.0 - Partly cloudy 10 - - - -
08/08:30pm 17.1 SSW 21 29 1016.2 - 0.0 - Partly cloudy 10 - - - -
08/08:16pm 17.1 SSW 19 29 1016.0 - 0.0 - Partly cloudy 10 - - - -
08/08:00pm 17.3 SSW 19 27 1015.7 - 0.0 - Partly cloudy 10 - - - -
08/07:30pm 18.1 S 21 28 1015.1 - 0.0 - - 10 - - - -
08/07:17pm 18.4 S 23 33 1014.8 - 0.0 - - 10 - - - -
08/07:00pm 18.7 S 22 30 1014.5 - 0.0 - - 10 - - - -
08/06:30pm 19.0 S 21 28 1014.0 - 0.0 - - 10 - - - -
08/06:22pm 18.9 S 22 32 1013.7 - 0.0 - - 10 - - - -
08/06:00pm 19.3 S 23 32 1013.2 - 0.0 - - 10 - - - -
08/05:30pm 19.3 S 20 30 1012.8 - 0.0 - - 10 - - - -
08/05:00pm 19.6 S 22 32 1012.4 - 0.0 - Partly cloudy 10 - - - -
08/04:30pm 19.6 S 22 30 1012.1 - 0.0 - Partly cloudy 10 - - - -
08/04:00pm 21.1 S 22 31 1011.8 - 0.0 - Partly cloudy 10 - - - -
08/03:30pm 20.7 S 22 30 1011.8 - 0.0 - Partly cloudy 10 - - - -
08/03:00pm 19.7 S 20 27 1011.7 - 0.0 - Partly cloudy 10 - - - -
08/02:48pm 20.5 S 18 29 1011.8 - 0.0 - Partly cloudy 10 - - - -
08/02:30pm 21.3 S 18 27 1011.9 - 0.0 - Partly cloudy 10 - - - -
08/02:00pm 22.9 SW 17 25 1011.9 - 0.0 - Partly cloudy 10 - - - -
08/01:30pm 21.8 SW 15 23 1012.3 - 0.0 - Partly cloudy 10 - - - -
08/01:12pm 21.6 SSW 17 27 1012.1 - 0.0 - Cloudy 10 - - - -
08/01:00pm 22.1 SW 17 25 1012.3 - 0.0 - Partly cloudy 10 - - - -
08/12:35pm 21.7 WSW 16 29 1012.0 - 0.0 - Partly cloudy 10 - - - -
08/12:30pm 22.3 WSW 16 25 1012.3 - 0.0 - Partly cloudy 10 - - - -
08/12:00pm 22.2 SW 19 29 1011.9 - 0.0 - Partly cloudy 10 - - - -
08/11:51am 21.5 SW 17 29 1011.7 - 0.0 - Partly cloudy 10 - - - -
08/11:30am 20.8 SW 14 21 1011.8 - 0.0 - Partly cloudy 10 - - - -
08/11:00am 20.3 SW 17 24 1011.6 - 0.0 - Partly cloudy 10 - - - -
08/10:30am 20.2 SW 17 24 1011.5 - 0.0 - Partly cloudy 10 - - - -
08/10:00am 19.1 SW 18 24 1011.4 - 0.0 - Partly cloudy 10 - - - -
08/09:30am 18.0 SW 16 23 1011.4 - 0.0 - Partly cloudy 10 - - - -
08/09:13am 18.1 SW 20 30 1011.1 - 0.0 - Partly cloudy 10 - - - -
08/09:00am 18.2 SW 17 24 1011.1 - 4.8 - Mostly clear 10 - - - -
08/08:30am 17.2 WSW 18 25 1010.7 - 4.8 - - 10 - - - -
08/08:00am 16.5 WSW 15 21 1010.5 - 4.8 - - 10 - - - -
08/07:30am 15.9 W 11 16 1009.9 - 4.8 - Partly cloudy 10 - - - -
08/07:00am 15.2 WSW 8 11 1009.7 - 4.8 - Partly cloudy 10 - - - -
08/06:30am 14.4 WSW 9 13 1009.3 - 4.8 - - - - - - -
08/06:00am 14.9 WSW 12 22 1008.6 - 4.8 - - - - - - -
08/05:30am 15.3 SW 13 19 1008.2 - 4.8 - - 10 - - - -
08/05:00am 16.1 SW 17 27 1007.3 - 4.8 - Partly cloudy 10 - - - -
08/04:38am 17.4 SW 16 27 1006.4 - 4.8 - Partly cloudy 10 - - - -
08/04:30am 18.0 WSW 15 20 1006.5 - 4.8 - Partly cloudy 10 - - - -
08/04:00am 18.3 SW 15 21 1005.9 - 4.8 - Partly cloudy 10 - - - -
08/03:30am 18.9 WSW 15 21 1005.3 - 4.8 - Partly cloudy - - - - -
08/03:00am 20.0 WSW 13 19 1004.6 - 4.8 - Cloudy - - - - -
08/02:30am 20.5 W 10 13 1004.4 - 4.8 - Partly cloudy - - - - -
08/02:00am 21.2 WNW 9 11 1004.1 - 4.8 - Partly cloudy - - - - -
08/01:30am 21.3 WNW 9 12 1004.2 - 4.8 - Partly cloudy - - - - -
08/01:00am 21.6 WNW 11 13 1004.0 - 3.0 - Partly cloudy - - - - -
08/12:30am 22.0 WNW 12 18 1003.9 - 2.6 - Partly cloudy - - - - -
08/12:14am 21.9 W 27 40 1004.0 - 1.6 - Partly cloudy 2 - - - -
08/12:07am 22.1 W 29 45 1003.0 - 0.6 - Partly cloudy 5 - - - -
08/12:05am 24.0 WNW 27 45 1002.8 - 0.0 - Partly cloudy 10 - - - -
08/12:01am 29.9 NNW 23 45 1002.4 - 0.0 - - 10 - - - -
08/12:00am 31.4 NNW 22 32 1001.8 - 0.0 - Cloudy 10 - - - -
 
Date/Time
CDT
Temp
°C
Wind Pressure Rain since
9am
mm
Weather Cloud Vis
km
Sea
Height
m
Swell
Dir  Spd
kts
Gust
kts
hPa Trend Height
m
Period
s
Dir
07/11:30pm 32.0 N 24 36 999.1 - 0.0 - - 10 - - - -
07/11:03pm 31.8 N 18 28 999.2 - 0.0 - - 10 - - - -
07/11:00pm 31.6 N 18 23 999.2 - 0.0 - - 10 - - - -
07/10:50pm 31.9 N 20 30 999.4 - 0.0 - - 10 - - - -
07/10:30pm 32.1 N 18 27 999.7 - 0.0 - - 10 - - - -
07/10:24pm 32.1 N 17 27 999.9 - 0.0 - - 10 - - - -
07/10:00pm 32.1 N 15 22 1000.5 - 0.0 - Partly cloudy 10 - - - -
07/09:30pm 31.9 N 11 16 1001.5 - 0.0 - Partly cloudy 10 - - - -
07/09:00pm 32.5 N 15 19 1001.5 - 0.0 - Partly cloudy 10 - - - -
07/08:30pm 33.4 N 14 19 1001.9 - 0.0 - Cloudy 10 - - - -
07/08:00pm 33.4 NNW 16 24 1002.0 - 0.0 - Cloudy 10 - - - -
07/07:30pm 33.8 NNW 17 23 1002.1 - 0.0 - Cloudy 10 - - - -

Other Formats:

Comma delimited format used in spreadsheet applications
http://www.bom.gov.au/fwo/IDS60701/IDS60701.95664.axf

JavaScript Object Notation format (JSON) in row-major order
http://www.bom.gov.au/fwo/IDS60701/IDS60701.95664.json